Time;durP1;ratioP1;P1;durP2;ratioP2;P2;SDS_P1;SDS_P2;PMS_P1;PMS_P2;Temp;Humidity;BMP_temperature;BMP_pressure;BME280_temperature;BME280_humidity;BME280_pressure;Samples;Min_cycle;Max_cycle;Signal;HPM_P1;HPM_P2
2022/01/07 00:03:08;;;;;;;125.10;50.40;;;-4.90;99.90;;;;;;10233895;29;20032;-81
2022/01/07 00:08:09;;;;;;;142.47;49.27;;;-5.00;99.90;;;;;;10243155;29;20055;-86
2022/01/07 00:13:11;;;;;;;135.03;45.00;;;-5.10;99.90;;;;;;10249135;29;20031;-81
2022/01/07 00:18:12;;;;;;;125.90;48.57;;;-5.20;99.90;;;;;;10250886;29;20038;-82
2022/01/07 00:23:12;;;;;;;130.83;51.17;;;-5.30;99.90;;;;;;10250654;29;20561;-82
2022/01/07 00:28:13;;;;;;;115.17;43.70;;;-5.20;99.90;;;;;;10250207;28;20035;-83
2022/01/07 00:33:14;;;;;;;130.80;51.53;;;-5.30;99.90;;;;;;10250385;29;20122;-84
2022/01/07 00:38:15;;;;;;;155.83;64.73;;;-5.50;99.90;;;;;;10250049;29;20039;-82
2022/01/07 00:43:15;;;;;;;180.83;76.57;;;-5.50;99.90;;;;;;10249846;29;20051;-82
2022/01/07 00:48:16;;;;;;;207.83;91.13;;;-5.50;99.90;;;;;;10232747;29;20094;-83
2022/01/07 00:53:17;;;;;;;206.47;89.57;;;-5.60;99.90;;;;;;10248269;28;20051;-83
2022/01/07 00:58:17;;;;;;;213.27;81.80;;;-5.70;99.90;;;;;;10232778;29;20372;-82
2022/01/07 01:03:18;;;;;;;153.80;64.97;;;-5.80;99.90;;;;;;10236732;29;20046;-82
2022/01/07 01:08:19;;;;;;;160.37;60.50;;;-5.70;99.90;;;;;;10250319;29;20029;-83
2022/01/07 01:13:20;;;;;;;207.37;79.13;;;-5.70;99.90;;;;;;10248965;29;20435;-84
2022/01/07 01:18:21;;;;;;;204.57;77.87;;;-5.70;99.90;;;;;;10247494;29;20039;-85
2022/01/07 01:23:22;;;;;;;165.73;67.17;;;-5.70;99.90;;;;;;10248689;28;20086;-83
2022/01/07 01:28:23;;;;;;;146.37;55.83;;;-5.60;99.90;;;;;;10247969;29;20063;-85
2022/01/07 01:33:23;;;;;;;121.80;47.13;;;-5.60;99.90;;;;;;10247878;29;20051;-82
2022/01/07 01:38:27;;;;;;;135.10;51.33;;;-5.60;99.90;;;;;;10248801;29;20050;-83
2022/01/07 01:43:27;;;;;;;125.03;52.40;;;-5.60;99.90;;;;;;10247777;29;20106;-82
2022/01/07 01:48:28;;;;;;;130.20;54.43;;;-5.60;99.90;;;;;;10248145;29;20094;-83
2022/01/07 01:53:30;;;;;;;120.70;52.87;;;-5.60;99.90;;;;;;10247335;29;20482;-81
2022/01/07 01:58:31;;;;;;;121.27;47.93;;;-5.50;99.90;;;;;;10246071;29;20023;-82
2022/01/07 02:03:32;;;;;;;116.83;47.93;;;-5.50;99.90;;;;;;10242757;28;20043;-84
2022/01/07 02:08:36;;;;;;;114.37;44.27;;;-5.60;99.90;;;;;;10245104;29;20391;-82
2022/01/07 02:13:37;;;;;;;99.50;41.33;;;-5.60;99.90;;;;;;10246161;29;20122;-83
2022/01/07 02:18:37;;;;;;;106.20;43.23;;;-5.60;99.90;;;;;;10246503;29;20042;-82
2022/01/07 02:23:38;;;;;;;112.90;46.30;;;-5.50;99.90;;;;;;10229892;28;20051;-84
2022/01/07 02:28:41;;;;;;;129.63;52.40;;;-5.60;99.90;;;;;;10246181;29;20502;-81
2022/01/07 02:33:41;;;;;;;116.17;46.53;;;-5.70;99.90;;;;;;10245728;29;20031;-83
2022/01/07 02:38:42;;;;;;;128.70;52.03;;;-5.70;99.90;;;;;;10247101;29;20035;-84
2022/01/07 02:43:43;;;;;;;134.67;53.60;;;-5.80;99.90;;;;;;10245989;29;20126;-82
2022/01/07 02:48:43;;;;;;;178.13;63.87;;;-5.80;99.90;;;;;;10245617;29;20110;-85
2022/01/07 02:53:44;;;;;;;184.30;66.03;;;-5.80;99.90;;;;;;10245875;29;20035;-81
2022/01/07 02:58:45;;;;;;;162.50;56.77;;;-5.70;99.90;;;;;;10246270;29;20058;-83
2022/01/07 03:03:45;;;;;;;140.57;52.23;;;-5.70;99.90;;;;;;10245776;29;20082;-85
2022/01/07 03:08:47;;;;;;;110.33;47.33;;;-5.90;99.90;;;;;;10245758;29;20034;-84
2022/01/07 03:13:48;;;;;;;101.20;42.73;;;-5.90;99.90;;;;;;10245895;29;20043;-84
2022/01/07 03:18:48;;;;;;;102.33;44.53;;;-5.90;99.90;;;;;;10251111;28;20159;-82
2022/01/07 03:23:49;;;;;;;106.60;44.80;;;-5.90;99.90;;;;;;10252194;28;20099;-83
2022/01/07 03:28:50;;;;;;;102.43;46.27;;;-5.90;99.90;;;;;;10253490;28;20118;-87
2022/01/07 03:33:51;;;;;;;99.47;42.83;;;-5.90;99.90;;;;;;10251189;29;20098;-82
2022/01/07 03:38:51;;;;;;;99.77;43.00;;;-6.00;99.90;;;;;;10235849;29;20046;-81
2022/01/07 03:43:52;;;;;;;111.53;47.67;;;-6.00;99.90;;;;;;10251836;29;20447;-82
2022/01/07 03:48:53;;;;;;;105.63;45.80;;;-6.10;99.90;;;;;;10252044;29;20042;-82
2022/01/07 03:53:54;;;;;;;108.40;46.27;;;-6.00;99.90;;;;;;10251634;29;20040;-82
2022/01/07 03:58:55;;;;;;;106.10;48.50;;;-5.90;99.90;;;;;;10251571;29;20027;-83
2022/01/07 04:03:55;;;;;;;127.00;56.37;;;-5.80;99.90;;;;;;10250401;29;20038;-82
2022/01/07 04:08:57;;;;;;;137.13;56.77;;;-5.80;99.90;;;;;;10250349;29;20028;-82
2022/01/07 04:13:58;;;;;;;137.20;62.10;;;-5.80;99.90;;;;;;10251564;29;20031;-82
2022/01/07 04:18:59;;;;;;;123.63;56.20;;;-5.90;99.90;;;;;;10250238;29;20440;-87
2022/01/07 04:23:59;;;;;;;115.13;52.00;;;-5.90;99.90;;;;;;10250642;29;20389;-85
2022/01/07 04:29:00;;;;;;;109.33;48.33;;;-6.00;99.90;;;;;;10249833;28;20058;-82
2022/01/07 04:34:01;;;;;;;111.30;47.50;;;-6.10;99.90;;;;;;10249280;29;20027;-84
2022/01/07 04:39:01;;;;;;;128.30;52.93;;;-6.10;99.90;;;;;;10250065;29;20451;-86
2022/01/07 04:44:02;;;;;;;128.10;52.63;;;-6.10;99.90;;;;;;10248876;29;20546;-82
2022/01/07 04:49:03;;;;;;;120.83;49.37;;;-6.20;99.90;;;;;;10250518;29;20601;-86
2022/01/07 04:54:04;;;;;;;107.17;43.90;;;-6.20;99.90;;;;;;10232604;29;20042;-85
2022/01/07 04:59:04;;;;;;;99.43;43.87;;;-6.10;99.90;;;;;;10249433;29;20576;-83
2022/01/07 05:04:05;;;;;;;100.93;43.27;;;-6.10;99.90;;;;;;10202886;29;20047;-81
2022/01/07 05:09:06;;;;;;;99.20;42.53;;;-6.10;99.90;;;;;;10235414;29;20038;-85
2022/01/07 05:14:06;;;;;;;110.27;45.30;;;-6.10;99.90;;;;;;10249202;29;20031;-82
2022/01/07 05:19:09;;;;;;;145.93;61.00;;;-6.10;99.90;;;;;;10247360;29;20039;-85
2022/01/07 05:24:09;;;;;;;91.20;42.07;;;-6.00;99.90;;;;;;10247838;28;20047;-85
2022/01/07 05:29:10;;;;;;;96.13;40.20;;;-5.90;99.90;;;;;;10244144;28;20051;-83
2022/01/07 05:34:11;;;;;;;71.80;31.50;;;-5.90;99.90;;;;;;10241936;28;20034;-83
2022/01/07 05:39:11;;;;;;;73.80;28.37;;;-5.80;99.90;;;;;;10247941;28;20019;-86
2022/01/07 05:44:12;;;;;;;65.20;28.00;;;-5.80;99.90;;;;;;10248226;29;20039;-85
2022/01/07 05:49:13;;;;;;;77.63;28.63;;;-5.70;99.90;;;;;;10248099;28;20044;-83
2022/01/07 05:54:13;;;;;;;65.83;26.80;;;-5.70;99.90;;;;;;10248529;29;20115;-83
2022/01/07 05:59:14;;;;;;;75.67;28.40;;;-5.70;99.90;;;;;;10230738;29;20024;-86
2022/01/07 06:04:15;;;;;;;67.50;29.17;;;-5.70;99.90;;;;;;10245031;28;20042;-82
2022/01/07 06:09:16;;;;;;;72.93;31.37;;;-5.70;99.90;;;;;;10247405;29;20391;-86
2022/01/07 06:14:17;;;;;;;73.33;28.77;;;-5.70;99.90;;;;;;10246865;28;20098;-83
2022/01/07 06:19:18;;;;;;;83.07;36.07;;;-5.60;99.90;;;;;;10246946;28;20046;-83
2022/01/07 06:24:19;;;;;;;71.37;30.83;;;-5.60;99.90;;;;;;10246646;28;20035;-85
2022/01/07 06:29:19;;;;;;;73.17;31.77;;;-5.50;99.90;;;;;;10229954;29;20051;-85
2022/01/07 06:34:20;;;;;;;77.27;35.37;;;-5.30;99.90;;;;;;10247028;29;20078;-83
2022/01/07 06:39:22;;;;;;;82.37;34.63;;;-5.20;99.90;;;;;;10247241;29;20035;-88
2022/01/07 06:44:23;;;;;;;430.63;161.17;;;-5.10;99.90;;;;;;10246993;29;20039;-84
2022/01/07 06:49:24;;;;;;;708.00;361.27;;;-5.00;99.90;;;;;;10245544;29;20534;-83
2022/01/07 06:54:26;;;;;;;100.23;45.63;;;-5.00;99.90;;;;;;10253534;28;20323;-87
2022/01/07 06:59:26;;;;;;;113.87;52.30;;;-5.00;99.90;;;;;;10253977;29;20050;-82
2022/01/07 07:04:28;;;;;;;278.40;120.10;;;-5.00;99.90;;;;;;10225260;28;20042;-82
2022/01/07 07:09:29;;;;;;;382.97;162.63;;;-5.10;99.90;;;;;;10254314;28;20027;-85
2022/01/07 07:14:30;;;;;;;347.33;124.87;;;-5.00;99.90;;;;;;10253057;29;20050;-85
2022/01/07 07:19:31;;;;;;;361.17;124.80;;;-5.10;99.90;;;;;;10253750;29;20043;-85
2022/01/07 07:24:32;;;;;;;464.07;168.47;;;-5.00;99.90;;;;;;10253217;29;20122;-86
2022/01/07 07:29:33;;;;;;;433.33;161.83;;;-5.00;99.90;;;;;;10252480;29;20055;-85
2022/01/07 07:39:40;;;;;;;108.57;38.40;;;-4.60;99.90;;;;;;10213418;29;20035;-86
2022/01/07 07:44:41;;;;;;;199.40;68.57;;;-4.40;99.90;;;;;;10231562;29;20037;-85
2022/01/07 07:49:41;;;;;;;179.70;73.63;;;-4.20;99.90;;;;;;10241084;29;20032;-84
2022/01/07 07:54:42;;;;;;;139.13;59.07;;;-4.00;99.90;;;;;;10252431;29;20031;-80
2022/01/07 07:59:43;;;;;;;131.43;61.37;;;-3.80;99.90;;;;;;10252499;29;20031;-81
2022/01/07 08:04:43;;;;;;;327.00;138.50;;;-3.60;99.90;;;;;;10232628;29;20400;-81
2022/01/07 08:09:45;;;;;;;164.07;75.53;;;-3.40;99.90;;;;;;10235494;29;20031;-80
2022/01/07 08:20:06;;;;;;;217.90;125.67;;;-3.00;99.90;;;;;;10252020;29;20040;-81
2022/01/07 08:25:07;;;;;;;155.90;80.73;;;-2.80;99.90;;;;;;10250588;29;20039;-81
2022/01/07 08:30:15;;;;;;;119.17;55.77;;;-2.60;99.90;;;;;;10238126;29;20047;-79
2022/01/07 08:35:16;;;;;;;123.20;60.80;;;-2.40;99.90;;;;;;10233126;29;20507;-80
2022/01/07 08:40:17;;;;;;;146.57;75.67;;;-2.20;99.90;;;;;;10250405;29;20036;-82
2022/01/07 08:45:18;;;;;;;202.27;79.80;;;-1.90;99.90;;;;;;10250105;28;20043;-80
2022/01/07 08:50:18;;;;;;;145.67;67.10;;;-1.70;99.90;;;;;;10249930;29;20122;-80
2022/01/07 08:55:19;;;;;;;199.90;83.53;;;-1.40;99.90;;;;;;10250198;29;20099;-80
2022/01/07 09:00:21;;;;;;;224.80;90.70;;;-1.20;99.90;;;;;;10249610;29;20464;-81
2022/01/07 09:05:22;;;;;;;262.03;109.80;;;-0.90;99.90;;;;;;10249203;29;20039;-83
2022/01/07 09:10:23;;;;;;;227.20;107.47;;;-0.70;99.90;;;;;;10222934;29;20034;-84
2022/01/07 09:15:26;;;;;;;180.87;82.67;;;-0.50;99.90;;;;;;10234190;29;20046;-81
2022/01/07 09:20:27;;;;;;;222.30;84.83;;;-0.30;99.90;;;;;;10237877;28;20039;-83
2022/01/07 09:25:27;;;;;;;149.63;58.57;;;-0.20;99.90;;;;;;10218854;28;20039;-84
2022/01/07 09:30:28;;;;;;;110.20;47.17;;;0.00;99.90;;;;;;10238205;28;20051;-84
2022/01/07 09:35:29;;;;;;;148.63;61.77;;;0.10;99.90;;;;;;10246635;29;20516;-83
2022/01/07 09:40:30;;;;;;;65.87;28.70;;;0.20;99.90;;;;;;10248726;28;20035;-83
2022/01/07 09:45:32;;;;;;;106.53;35.67;;;0.30;99.90;;;;;;10244415;29;20051;-84
2022/01/07 09:50:34;;;;;;;85.47;36.63;;;0.40;99.90;;;;;;10247367;29;20027;-84
2022/01/07 09:55:35;;;;;;;57.53;22.63;;;0.50;99.90;;;;;;10246380;29;20039;-84
2022/01/07 10:00:42;;;;;;;106.17;40.97;;;0.60;99.90;;;;;;10228695;28;20541;-83
2022/01/07 10:05:50;;;;;;;111.13;41.60;;;0.70;99.90;;;;;;10247202;28;20518;-84
2022/01/07 10:11:14;;;;;;;102.63;44.43;;;0.80;99.90;;;;;;10235616;29;20130;-83
2022/01/07 10:16:21;;;;;;;37.80;15.83;;;0.90;99.90;;;;;;10225073;29;20387;-83
2022/01/07 10:21:22;;;;;;;;;;;1.00;99.90;;;;;;10241843;28;20032;-84
2022/01/07 10:26:23;;;;;;;50.50;22.60;;;1.00;99.90;;;;;;10245011;28;19933;-84
2022/01/07 10:31:24;;;;;;;70.13;28.43;;;1.10;99.90;;;;;;10246406;29;20047;-84
2022/01/07 10:36:25;;;;;;;34.67;14.83;;;1.20;99.90;;;;;;10245115;29;20031;-84
2022/01/07 10:41:26;;;;;;;45.63;17.30;;;1.30;99.90;;;;;;10245725;28;20041;-83
2022/01/07 10:46:28;;;;;;;39.93;18.83;;;1.30;99.90;;;;;;10246171;29;20669;-84
2022/01/07 10:51:38;;;;;;;39.40;15.87;;;1.50;99.90;;;;;;10225312;29;20043;-88
2022/01/07 10:56:41;;;;;;;64.77;25.30;;;1.60;99.90;;;;;;10228617;29;20121;-87
2022/01/07 11:01:56;;;;;;;39.57;16.80;;;1.60;99.90;;;;;;10226204;29;20035;-86
2022/01/07 11:07:00;;;;;;;36.47;14.30;;;1.80;99.90;;;;;;10245698;29;20027;-85
2022/01/07 11:12:15;;;;;;;34.13;14.17;;;1.90;99.90;;;;;;10228779;29;20093;-87
2022/01/07 11:17:23;;;;;;;34.13;12.87;;;2.00;99.90;;;;;;10214147;29;20023;-84
2022/01/07 11:22:31;;;;;;;28.30;11.93;;;2.20;99.90;;;;;;10244365;28;20035;-85
2022/01/07 11:27:57;;;;;;;31.57;10.53;;;2.40;99.90;;;;;;10244977;28;20042;-85
2022/01/07 11:34:01;;;;;;;30.03;13.10;;;2.60;99.90;;;;;;10244927;28;20047;-84
2022/01/07 11:39:04;;;;;;;27.03;11.30;;;2.70;99.90;;;;;;10109662;29;20112;-84
2022/01/07 11:44:13;;;;;;;17.33;7.17;;;2.90;99.90;;;;;;10234557;28;20142;-85
2022/01/07 11:49:35;;;;;;;19.10;7.97;;;3.10;99.90;;;;;;10234962;29;20039;-87
2022/01/07 11:54:35;;;;;;;13.77;5.63;;;3.00;99.90;;;;;;10253154;29;20419;-86
2022/01/07 11:59:49;;;;;;;17.73;6.07;;;2.70;99.90;;;;;;10251809;28;20039;-86
2022/01/07 12:04:49;;;;;;;42.00;15.73;;;2.60;99.90;;;;;;10236967;29;20047;-86
2022/01/07 12:10:23;;;;;;;31.60;11.63;;;2.50;99.90;;;;;;10251582;28;20416;-85
2022/01/07 12:15:24;;;;;;;19.20;8.53;;;2.40;99.90;;;;;;10251296;28;20038;-86
2022/01/07 12:20:46;;;;;;;19.30;7.27;;;2.10;99.90;;;;;;10251191;29;20550;-84
2022/01/07 12:25:49;;;;;;;37.17;14.53;;;1.70;99.90;;;;;;10250074;28;20038;-86
2022/01/07 12:30:51;;;;;;;29.67;9.70;;;1.50;99.90;;;;;;10244574;29;20436;-88
2022/01/07 12:35:52;;;;;;;144.17;61.87;;;1.40;99.90;;;;;;10247448;28;20023;-87
2022/01/07 12:40:56;;;;;;;67.40;24.23;;;1.50;99.90;;;;;;10234675;29;20050;-88
2022/01/07 12:46:00;;;;;;;96.43;33.63;;;1.40;99.90;;;;;;10232578;29;20043;-88
2022/01/07 12:51:03;;;;;;;83.20;30.53;;;1.50;99.90;;;;;;10228811;28;20024;-88
2022/01/07 12:56:28;;;;;;;59.93;24.37;;;1.60;99.90;;;;;;10216249;29;20383;-88
2022/01/07 13:01:31;;;;;;;100.03;39.27;;;1.70;99.90;;;;;;10234316;29;20023;-90
2022/01/07 13:06:37;;;;;;;57.90;20.03;;;1.70;99.90;;;;;;10227969;29;20039;-88
2022/01/07 13:11:39;;;;;;;75.20;26.37;;;1.70;99.90;;;;;;10221319;29;20020;-88
2022/01/07 13:16:40;;;;;;;37.17;12.90;;;1.50;99.90;;;;;;10223122;28;20535;-89
2022/01/07 13:21:42;;;;;;;64.87;23.40;;;1.30;99.90;;;;;;10249692;29;20096;-90
2022/01/07 13:26:51;;;;;;;71.17;25.57;;;1.10;99.90;;;;;;10248577;28;20037;-91
2022/01/07 13:32:03;;;;;;;98.77;35.23;;;1.10;99.90;;;;;;10231362;29;20499;-89
2022/01/07 13:37:09;;;;;;;105.03;36.60;;;0.90;99.90;;;;;;10231733;28;20442;-90
2022/01/07 13:42:19;;;;;;;131.43;45.00;;;0.90;99.90;;;;;;10230029;29;20047;-89
2022/01/07 13:47:26;;;;;;;74.80;26.97;;;0.80;99.90;;;;;;10248799;29;20539;-86
2022/01/07 13:52:29;;;;;;;83.87;30.00;;;0.80;99.90;;;;;;10248126;29;20087;-89
2022/01/07 13:57:32;;;;;;;48.33;18.80;;;0.80;99.90;;;;;;10230223;29;20437;-91
2022/01/07 14:02:33;;;;;;;43.00;16.30;;;0.80;99.90;;;;;;10228843;29;20585;-89
2022/01/07 14:07:47;;;;;;;49.03;17.70;;;0.80;99.90;;;;;;10246161;29;20042;-90
2022/01/07 14:12:54;;;;;;;31.43;12.30;;;0.80;99.90;;;;;;10246957;28;20031;-88
2022/01/07 14:18:15;;;;;;;46.43;17.37;;;0.70;99.90;;;;;;10230208;29;20089;-90
2022/01/07 14:23:21;;;;;;;69.53;22.73;;;0.70;99.90;;;;;;10246941;29;20050;-91
2022/01/07 14:28:21;;;;;;;;;;;0.70;99.90;;;;;;10229170;29;20035;-90
2022/01/07 14:33:22;;;;;;;36.83;15.97;;;0.70;99.90;;;;;;10210367;29;20398;-90
2022/01/07 14:38:24;;;;;;;43.13;17.37;;;0.60;99.90;;;;;;10230588;28;20019;-90
2022/01/07 14:43:25;;;;;;;43.03;16.83;;;0.50;99.90;;;;;;10245309;29;20050;-88
2022/01/07 14:48:26;;;;;;;466.70;253.57;;;0.50;99.90;;;;;;10243606;28;20399;-90
2022/01/07 14:53:28;;;;;;;279.63;97.60;;;0.50;99.90;;;;;;10243919;29;20117;-90
2022/01/07 14:58:29;;;;;;;188.97;69.20;;;0.50;99.90;;;;;;10244305;29;20467;-89
2022/01/07 15:03:29;;;;;;;153.07;53.70;;;0.40;99.90;;;;;;10244933;28;20123;-89
2022/01/07 15:08:30;;;;;;;146.67;59.10;;;0.40;99.90;;;;;;10244892;29;20038;-91
2022/01/07 15:13:31;;;;;;;172.03;66.90;;;0.30;99.90;;;;;;10249619;28;20110;-91
2022/01/07 15:18:31;;;;;;;122.97;55.40;;;0.30;99.90;;;;;;10251681;29;20035;-89
2022/01/07 15:23:38;;;;;;;173.80;74.70;;;0.20;99.90;;;;;;10271891;28;20074;-89
2022/01/07 15:28:39;;;;;;;115.80;55.43;;;0.10;99.90;;;;;;10251275;29;20091;-90
2022/01/07 15:33:45;;;;;;;104.93;53.47;;;0.10;99.90;;;;;;10227858;29;20106;-91
2022/01/07 15:38:46;;;;;;;255.23;85.60;;;0.00;99.90;;;;;;10248284;29;20046;-91
2022/01/07 15:43:47;;;;;;;229.17;87.43;;;-0.10;99.90;;;;;;10226741;29;20476;-86
2022/01/07 15:48:47;;;;;;;378.33;136.97;;;-0.10;99.90;;;;;;10201676;29;20085;-86
2022/01/07 15:53:48;;;;;;;933.00;374.43;;;-0.20;99.90;;;;;;10244724;29;20066;-85
2022/01/07 15:58:50;;;;;;;666.23;275.83;;;-0.30;99.90;;;;;;10245917;29;20032;-87
2022/01/07 16:03:50;;;;;;;957.43;370.37;;;-0.30;99.90;;;;;;10226755;29;20051;-86
2022/01/07 16:08:51;;;;;;;1000.30;384.23;;;-0.30;99.90;;;;;;10250083;29;20058;-88
2022/01/07 16:13:52;;;;;;;924.80;356.63;;;-0.30;99.90;;;;;;10226710;29;20086;-86
2022/01/07 16:18:53;;;;;;;868.87;333.80;;;-0.40;99.90;;;;;;10239904;29;20025;-86
2022/01/07 16:23:53;;;;;;;879.57;343.57;;;-0.40;99.90;;;;;;10232823;28;20031;-85
2022/01/07 16:28:54;;;;;;;731.20;295.07;;;-0.40;99.90;;;;;;10250888;29;20062;-86
2022/01/07 16:33:55;;;;;;;515.90;197.60;;;0.10;99.90;;;;;;10251614;29;20024;-84
2022/01/07 16:38:55;;;;;;;444.67;162.60;;;0.20;99.90;;;;;;10233675;29;20050;-85
2022/01/07 16:43:57;;;;;;;459.10;178.73;;;0.00;99.90;;;;;;10250574;28;20047;-86
2022/01/07 16:48:58;;;;;;;313.97;109.30;;;-0.20;99.90;;;;;;10250174;29;20485;-86
2022/01/07 16:53:59;;;;;;;388.03;131.57;;;-0.60;99.90;;;;;;10250271;28;20035;-85
2022/01/07 16:58:59;;;;;;;330.90;131.07;;;-0.80;99.90;;;;;;10250341;28;20094;-85
2022/01/07 17:04:00;;;;;;;162.63;65.90;;;-1.00;99.90;;;;;;10249472;28;20039;-84
2022/01/07 17:09:01;;;;;;;209.70;86.37;;;-1.10;99.90;;;;;;10232804;29;20503;-84
2022/01/07 17:14:04;;;;;;;188.53;71.40;;;-1.20;99.90;;;;;;10232205;29;20393;-88
2022/01/07 17:19:05;;;;;;;171.93;71.10;;;-1.30;99.90;;;;;;10249594;29;20113;-85
2022/01/07 17:24:06;;;;;;;167.00;71.53;;;-1.40;99.90;;;;;;10228660;28;20051;-86
2022/01/07 17:29:07;;;;;;;196.97;80.57;;;-1.50;99.90;;;;;;10236114;29;20491;-84
2022/01/07 17:34:07;;;;;;;131.83;57.63;;;-1.50;99.90;;;;;;10246976;28;20062;-81
2022/01/07 17:39:08;;;;;;;215.10;79.03;;;-1.50;99.90;;;;;;10243140;29;20031;-81
2022/01/07 17:44:09;;;;;;;161.40;61.87;;;-1.50;99.90;;;;;;10247584;28;20047;-82
2022/01/07 17:49:10;;;;;;;195.00;87.37;;;-1.50;99.90;;;;;;10249523;28;20035;-88
2022/01/07 17:54:11;;;;;;;273.10;115.80;;;-1.60;99.90;;;;;;10247314;29;20050;-84
2022/01/07 17:59:12;;;;;;;188.37;83.87;;;-1.60;99.90;;;;;;10247325;29;20058;-83
2022/01/07 18:04:13;;;;;;;214.43;103.37;;;-1.70;99.90;;;;;;10246876;28;20035;-87
2022/01/07 18:15:17;;;;;;;168.37;72.77;;;-1.90;99.90;;;;;;10244971;28;20027;-85
2022/01/07 18:26:15;;;;;;;;;;;-2.10;99.90;;;;;;10240980;29;20154;-84
2022/01/07 18:31:17;;;;;;;130.90;60.00;;;-2.10;99.90;;;;;;10241155;28;19922;-84
2022/01/07 18:36:18;;;;;;;184.47;74.00;;;-2.00;99.90;;;;;;10245765;28;20435;-84
2022/01/07 18:47:20;;;;;;;83.80;39.63;;;-2.00;99.90;;;;;;10241049;28;20070;-85
2022/01/07 18:52:21;;;;;;;74.23;32.13;;;-2.00;99.90;;;;;;10234918;28;20038;-85
2022/01/07 18:57:21;;;;;;;141.00;56.03;;;-1.90;99.90;;;;;;10248997;28;20020;-85
2022/01/07 19:02:22;;;;;;;252.17;105.73;;;-1.90;99.90;;;;;;10228205;28;20471;-84
2022/01/07 19:07:23;;;;;;;106.63;43.27;;;-1.80;99.90;;;;;;10231753;28;20028;-85
2022/01/07 19:12:24;;;;;;;103.07;41.40;;;-1.80;99.90;;;;;;10237841;28;20094;-85
2022/01/07 19:17:25;;;;;;;118.23;47.90;;;-1.80;99.90;;;;;;10233049;28;20646;-85
2022/01/07 19:22:26;;;;;;;65.70;27.40;;;-1.80;99.90;;;;;;10251452;28;20097;-85
2022/01/07 19:27:28;;;;;;;63.37;28.00;;;-1.80;99.90;;;;;;10227351;28;20039;-85
2022/01/07 19:32:30;;;;;;;68.17;30.57;;;-1.70;99.90;;;;;;10224530;28;20744;-84
2022/01/07 19:37:32;;;;;;;63.87;28.90;;;-1.70;99.90;;;;;;10243295;28;20043;-84
2022/01/07 19:42:34;;;;;;;59.87;26.23;;;-1.70;99.90;;;;;;10250930;28;20075;-83
2022/01/07 19:47:36;;;;;;;68.70;25.77;;;-1.80;99.90;;;;;;10232484;28;20130;-86
2022/01/07 19:52:37;;;;;;;60.63;26.23;;;-1.80;99.90;;;;;;10228946;28;20039;-85
2022/01/07 19:57:37;;;;;;;51.60;22.67;;;-1.80;99.90;;;;;;10250868;28;20479;-86
2022/01/07 20:02:39;;;;;;;58.17;24.30;;;-1.90;99.90;;;;;;10252337;28;20047;-84
2022/01/07 20:07:40;;;;;;;73.80;29.37;;;-1.90;99.90;;;;;;10232978;29;20028;-87
2022/01/07 20:12:44;;;;;;;65.97;26.83;;;-1.90;99.90;;;;;;10250010;28;20093;-84
2022/01/07 20:17:47;;;;;;;78.03;28.40;;;-1.90;99.90;;;;;;10231717;28;20043;-85
2022/01/07 20:22:49;;;;;;;64.73;26.43;;;-2.00;99.90;;;;;;10236074;28;20039;-84
2022/01/07 20:27:52;;;;;;;75.40;29.43;;;-2.00;99.90;;;;;;10232288;28;20043;-86
2022/01/07 20:32:53;;;;;;;74.17;29.37;;;-2.10;99.90;;;;;;10225108;28;20055;-84
2022/01/07 20:37:55;;;;;;;115.60;40.77;;;-2.20;99.90;;;;;;10238890;28;20042;-88
2022/01/07 20:42:56;;;;;;;115.67;42.37;;;-2.20;99.90;;;;;;10229785;28;20082;-84
2022/01/07 20:47:57;;;;;;;71.63;27.17;;;-2.30;99.90;;;;;;10249122;28;20035;-85
2022/01/07 20:52:58;;;;;;;62.33;24.70;;;-2.40;99.90;;;;;;10232239;28;20038;-84
2022/01/07 20:57:58;;;;;;;73.70;30.70;;;-2.40;99.90;;;;;;10249034;28;20031;-84
2022/01/07 21:03:02;;;;;;;85.53;30.97;;;-2.40;99.90;;;;;;10244257;28;20042;-83
2022/01/07 21:08:03;;;;;;;80.37;31.77;;;-2.40;99.90;;;;;;10238105;28;20027;-85
2022/01/07 21:13:04;;;;;;;71.90;29.13;;;-2.50;99.90;;;;;;10235702;28;20673;-86
2022/01/07 21:18:05;;;;;;;88.53;33.77;;;-2.50;99.90;;;;;;10224076;28;20023;-86
2022/01/07 21:23:05;;;;;;;86.03;32.23;;;-2.50;99.90;;;;;;10244530;28;20098;-86
2022/01/07 21:28:06;;;;;;;89.47;34.23;;;-2.60;99.90;;;;;;10249031;29;20035;-86
2022/01/07 21:33:08;;;;;;;89.77;36.10;;;-2.60;99.90;;;;;;10226699;29;20047;-85
2022/01/07 21:38:08;;;;;;;167.27;71.27;;;-2.70;99.90;;;;;;10238283;28;20111;-84
2022/01/07 21:43:10;;;;;;;95.00;39.03;;;-2.80;99.90;;;;;;10248087;29;20047;-84
2022/01/07 21:48:11;;;;;;;80.27;35.27;;;-2.90;99.90;;;;;;10266288;28;20102;-83
2022/01/07 21:53:12;;;;;;;97.00;41.13;;;-2.90;99.90;;;;;;10244329;28;20046;-86
2022/01/07 21:58:12;;;;;;;108.37;44.07;;;-3.10;99.90;;;;;;10238237;28;20439;-87
2022/01/07 22:03:15;;;;;;;135.23;51.50;;;-3.10;99.90;;;;;;10244586;28;20028;-83
2022/01/07 22:08:16;;;;;;;86.73;35.93;;;-3.10;99.90;;;;;;10239267;28;20522;-83
2022/01/07 22:13:19;;;;;;;80.53;36.37;;;-3.10;99.90;;;;;;10229593;28;20020;-83
2022/01/07 22:18:21;;;;;;;83.33;36.80;;;-3.00;99.90;;;;;;10232186;28;20122;-84
2022/01/07 22:23:22;;;;;;;96.93;43.03;;;-3.00;99.90;;;;;;10239679;28;20031;-82
2022/01/07 22:28:25;;;;;;;93.13;37.93;;;-3.00;99.90;;;;;;10239617;28;20102;-84
2022/01/07 22:33:26;;;;;;;90.77;37.53;;;-3.00;99.90;;;;;;10233995;28;20458;-88
2022/01/07 22:38:27;;;;;;;103.20;36.53;;;-3.10;99.90;;;;;;10221144;28;20062;-86
2022/01/07 22:43:28;;;;;;;100.03;41.63;;;-3.10;99.90;;;;;;10244307;28;20043;-85
2022/01/07 22:48:29;;;;;;;94.63;39.60;;;-3.20;99.90;;;;;;10239687;28;20115;-83
2022/01/07 22:53:29;;;;;;;98.43;40.20;;;-3.20;99.90;;;;;;10243820;29;20037;-84
2022/01/07 22:58:30;;;;;;;96.20;39.73;;;-3.30;99.90;;;;;;10245109;28;20431;-85
2022/01/07 23:03:31;;;;;;;120.13;51.07;;;-3.40;99.90;;;;;;10245682;28;20043;-84
2022/01/07 23:08:32;;;;;;;99.70;42.33;;;-3.40;99.90;;;;;;10246050;28;20027;-84
2022/01/07 23:13:33;;;;;;;94.00;38.30;;;-3.50;99.90;;;;;;10245714;28;20035;-84
2022/01/07 23:18:40;;;;;;;86.47;36.63;;;-3.50;99.90;;;;;;10228252;28;20031;-85
2022/01/07 23:23:41;;;;;;;94.20;37.00;;;-3.60;99.90;;;;;;10246474;29;20043;-85
2022/01/07 23:28:41;;;;;;;82.07;33.77;;;-3.60;99.90;;;;;;10245285;28;20043;-83
2022/01/07 23:33:42;;;;;;;76.90;30.80;;;-3.60;99.90;;;;;;10247955;28;20082;-87
2022/01/07 23:38:43;;;;;;;76.47;32.37;;;-3.70;99.90;;;;;;10245217;29;20458;-84
2022/01/07 23:43:43;;;;;;;95.13;36.50;;;-3.90;99.90;;;;;;10252630;28;20043;-83
2022/01/07 23:48:44;;;;;;;89.10;35.43;;;-4.00;99.90;;;;;;10252928;28;20035;-86
2022/01/07 23:53:45;;;;;;;59.53;24.13;;;-4.00;99.90;;;;;;10253362;28;20058;-86
2022/01/07 23:58:45;;;;;;;74.10;29.43;;;-3.90;99.90;;;;;;10234768;29;20090;-83
